createdAt,value
2023-04-14T00:01:54.787Z,74.32
2023-04-14T00:04:21.844Z,74.67
2023-04-14T00:06:48.629Z,74.59
2023-04-14T00:09:15.418Z,76.08
2023-04-14T00:11:41.853Z,75.82
2023-04-14T00:14:08.290Z,75.64
2023-04-14T00:16:35.062Z,76.16
2023-04-14T00:19:02.443Z,76.72
2023-04-14T00:21:29.173Z,76.72
2023-04-14T00:23:56.704Z,76.56
2023-04-14T00:26:23.213Z,77.30
2023-04-14T00:28:49.640Z,77.89
2023-04-14T00:31:16.293Z,78.12
2023-04-14T00:33:42.840Z,77.58
2023-04-14T00:36:09.345Z,78.17
2023-04-14T00:38:35.796Z,75.09
2023-04-14T00:41:02.288Z,73.94
2023-04-14T00:43:28.721Z,74.11
2023-04-14T00:45:55.509Z,74.18
2023-04-14T00:48:22.396Z,74.14
2023-04-14T00:50:48.946Z,74.06
2023-04-14T00:53:15.710Z,74.37
2023-04-14T00:55:42.878Z,74.90
2023-04-14T00:58:09.636Z,75.08
2023-04-14T01:00:37.584Z,75.71
2023-04-14T01:03:04.300Z,77.17
2023-04-14T01:05:31.041Z,79.92
2023-04-14T01:07:57.732Z,78.77
2023-04-14T01:10:32.904Z,78.77
2023-04-14T01:13:16.057Z,77.65
2023-04-14T01:15:57.418Z,77.80
2023-04-14T01:18:24.038Z,77.73
2023-04-14T01:20:56.415Z,76.78
2023-04-14T01:23:29.257Z,76.73
2023-04-14T01:26:19.547Z,76.82
2023-04-14T01:29:01.056Z,77.65
2023-04-14T01:31:32.805Z,77.26
2023-04-14T01:34:04.410Z,78.52
2023-04-14T01:36:38.216Z,77.99
2023-04-14T01:39:08.224Z,77.41
2023-04-14T01:41:39.319Z,77.33
2023-04-14T01:44:07.733Z,77.09
2023-04-14T01:46:36.382Z,76.56
2023-04-14T01:49:03.973Z,77.51
2023-04-14T01:51:33.755Z,78.57
2023-04-14T01:54:02.858Z,79.58
2023-04-14T01:56:29.946Z,79.55
2023-04-14T01:58:58.580Z,79.21
2023-04-14T02:01:27.833Z,79.15
2023-04-14T02:03:54.519Z,79.06
2023-04-14T02:06:22.969Z,78.62
2023-04-14T02:08:50.935Z,78.53
2023-04-14T02:11:21.638Z,78.39
2023-04-14T02:13:49.058Z,78.33
2023-04-14T02:16:16.621Z,78.65
2023-04-14T02:18:44.624Z,78.45
2023-04-14T02:21:12.947Z,78.60
2023-04-14T02:23:39.347Z,80.19
2023-04-14T02:26:11.916Z,80.60
2023-04-14T02:28:45.904Z,80.28
2023-04-14T02:31:16.603Z,80.84
2023-04-14T02:33:45.376Z,80.67
2023-04-14T02:36:20.512Z,81.55
2023-04-14T02:38:52.178Z,82.03
2023-04-14T02:41:30.276Z,81.86
2023-04-14T02:44:14.247Z,82.91
2023-04-14T02:46:46.468Z,81.22
2023-04-14T02:49:16.207Z,82.20
2023-04-14T02:51:45.560Z,81.55
2023-04-14T02:54:13.983Z,81.43
2023-04-14T02:56:40.802Z,81.70
2023-04-14T02:59:07.863Z,81.62
2023-04-14T03:01:34.614Z,81.79
2023-04-14T03:04:01.866Z,81.42
2023-04-14T03:06:29.186Z,81.06
2023-04-14T03:08:59.060Z,80.63
2023-04-14T03:11:27.408Z,80.19
2023-04-14T03:13:56.357Z,80.43
2023-04-14T03:16:25.529Z,80.36
2023-04-14T03:18:54.408Z,80.54
2023-04-14T03:21:21.937Z,80.53
2023-04-14T03:23:51.526Z,81.42
2023-04-14T03:26:20.544Z,81.44
2023-04-14T03:28:50.869Z,81.57
2023-04-14T03:31:19.450Z,81.83
2023-04-14T03:33:55.407Z,81.34
2023-04-14T03:36:23.080Z,82.09
2023-04-14T03:38:50.640Z,81.88
2023-04-14T03:41:19.568Z,81.46
2023-04-14T03:43:49.762Z,81.05
2023-04-14T03:46:16.403Z,81.37
2023-04-14T03:48:46.582Z,81.21
2023-04-14T03:51:16.095Z,81.39
2023-04-14T03:53:45.207Z,82.91
2023-04-14T03:56:16.247Z,82.25
2023-04-14T03:58:46.452Z,84.60
2023-04-14T04:01:14.815Z,83.07
2023-04-14T04:03:42.659Z,83.58
2023-04-14T04:06:09.647Z,84.93
2023-04-14T04:08:37.630Z,86.30
2023-04-14T04:11:07.342Z,88.13
2023-04-14T04:13:36.094Z,87.44
2023-04-14T04:16:03.536Z,86.04
2023-04-14T04:18:31.781Z,86.58
2023-04-14T04:20:59.760Z,85.99
2023-04-14T04:23:30.346Z,85.54
2023-04-14T04:25:56.876Z,85.60
2023-04-14T04:28:23.546Z,85.35
2023-04-14T04:30:52.625Z,84.28
2023-04-14T04:33:21.332Z,84.08
2023-04-14T04:35:48.125Z,83.45
2023-04-14T04:38:14.667Z,84.08
2023-04-14T04:40:41.348Z,84.97
2023-04-14T04:43:07.773Z,85.50
2023-04-14T04:45:40.287Z,85.20
2023-04-14T04:48:07.163Z,85.23
2023-04-14T04:50:33.577Z,84.78
2023-04-14T04:52:59.976Z,84.56
2023-04-14T04:55:26.356Z,86.16
2023-04-14T04:57:52.892Z,85.62
2023-04-14T05:00:22.861Z,86.71
2023-04-14T05:02:49.484Z,86.38
2023-04-14T05:05:16.170Z,85.50
2023-04-14T05:07:43.209Z,85.33
2023-04-14T05:10:09.810Z,85.02
2023-04-14T05:12:36.288Z,84.95
2023-04-14T05:15:03.148Z,84.46
2023-04-14T05:17:29.600Z,85.32
2023-04-14T05:19:57.489Z,86.90
2023-04-14T05:22:23.953Z,86.58
2023-04-14T05:24:51.187Z,86.37
2023-04-14T05:27:17.758Z,86.91
2023-04-14T05:29:44.177Z,85.39
2023-04-14T05:32:12.353Z,85.72
2023-04-14T05:34:38.775Z,86.05
2023-04-14T05:37:05.227Z,83.85
2023-04-14T05:39:31.652Z,84.61
2023-04-14T05:41:59.663Z,82.95
2023-04-14T05:44:26.149Z,81.83
2023-04-14T05:46:52.693Z,81.43
2023-04-14T05:49:19.217Z,81.25
2023-04-14T05:51:45.709Z,79.45
2023-04-14T05:54:12.117Z,77.42
2023-04-14T05:56:39.016Z,77.88
2023-04-14T05:59:05.439Z,77.25
2023-04-14T06:01:31.900Z,76.18
2023-04-14T06:03:58.717Z,75.01
2023-04-14T06:06:26.224Z,74.62
2023-04-14T06:08:52.684Z,73.33
2023-04-14T06:11:19.094Z,72.78
2023-04-14T06:13:45.514Z,72.08
2023-04-14T06:16:11.996Z,71.15
2023-04-14T06:18:38.482Z,67.13
2023-04-14T06:21:04.930Z,65.35
2023-04-14T06:23:32.272Z,65.03
2023-04-14T06:25:58.990Z,65.00
2023-04-14T06:28:26.214Z,63.61
2023-04-14T06:30:52.814Z,60.83
2023-04-14T06:33:19.505Z,58.60
2023-04-14T06:35:46.015Z,61.93
2023-04-14T06:38:12.597Z,60.67
2023-04-14T06:40:38.981Z,58.49
2023-04-14T06:43:10.775Z,59.85
2023-04-14T06:45:37.289Z,53.49
2023-04-14T06:48:03.993Z,50.18
2023-04-14T06:50:30.487Z,52.53
2023-04-14T06:52:56.924Z,50.60
2023-04-14T06:55:23.337Z,55.29
2023-04-14T06:57:49.741Z,50.10
2023-04-14T07:00:16.641Z,56.18
2023-04-14T07:02:43.217Z,55.81
2023-04-14T07:05:09.819Z,53.58
2023-04-14T07:07:40.231Z,54.64
2023-04-14T07:10:07.230Z,53.25
2023-04-14T07:12:33.765Z,53.11
2023-04-14T07:15:00.266Z,53.75
2023-04-14T07:17:26.722Z,49.00
2023-04-14T07:19:53.212Z,49.18
2023-04-14T07:22:19.633Z,45.06
2023-04-14T07:24:46.034Z,46.52
2023-04-14T07:27:15.792Z,48.31
2023-04-14T07:29:42.579Z,44.93
2023-04-14T07:32:09.037Z,43.64
2023-04-14T07:34:35.519Z,44.98
2023-04-14T07:37:02.059Z,47.41
2023-04-14T07:39:28.495Z,44.58
2023-04-14T07:41:57.729Z,39.45
2023-04-14T07:44:24.382Z,42.17
2023-04-14T07:46:50.856Z,45.55
2023-04-14T07:49:17.319Z,46.61
2023-04-14T07:51:43.899Z,45.86
2023-04-14T07:54:11.741Z,49.45
2023-04-14T07:56:38.186Z,48.57
2023-04-14T07:59:04.612Z,48.81
2023-04-14T08:01:31.043Z,45.69
2023-04-14T08:03:57.714Z,45.92
2023-04-14T08:06:24.325Z,49.58
2023-04-14T08:08:50.724Z,45.66
2023-04-14T08:11:17.132Z,46.29
2023-04-14T08:13:43.658Z,46.64
2023-04-14T08:16:10.382Z,45.68
2023-04-14T08:18:36.883Z,45.28
2023-04-14T08:21:03.357Z,44.58
2023-04-14T08:23:29.784Z,43.25
2023-04-14T08:25:56.519Z,44.23
2023-04-14T08:28:22.942Z,39.97
2023-04-14T08:30:49.598Z,41.98
2023-04-14T08:33:16.411Z,43.56
2023-04-14T08:35:43.939Z,40.72
2023-04-14T08:38:10.834Z,39.12
2023-04-14T08:40:38.525Z,38.81
2023-04-14T08:43:05.990Z,42.02
2023-04-14T08:45:33.354Z,43.21
2023-04-14T08:48:01.257Z,43.75
2023-04-14T08:50:43.063Z,42.16
2023-04-14T08:53:10.410Z,42.09
2023-04-14T08:55:42.721Z,40.56
2023-04-14T08:58:12.573Z,40.52
2023-04-14T09:00:42.432Z,41.22
2023-04-14T09:03:09.310Z,41.99
2023-04-14T09:05:36.499Z,43.46
2023-04-14T09:08:03.724Z,44.03
2023-04-14T09:10:30.879Z,44.18
2023-04-14T09:12:57.517Z,44.25
2023-04-14T09:15:27.270Z,46.25
2023-04-14T09:17:55.215Z,44.95
2023-04-14T09:20:37.508Z,45.37
2023-04-14T09:23:09.778Z,44.80
2023-04-14T09:25:38.287Z,46.35
2023-04-14T09:28:04.895Z,46.03
2023-04-14T09:30:31.849Z,44.77
2023-04-14T09:32:58.362Z,44.92
2023-04-14T09:35:44.742Z,43.96
2023-04-14T09:38:11.520Z,46.00
2023-04-14T09:40:39.112Z,45.47
2023-04-14T09:43:05.964Z,45.57
2023-04-14T09:45:45.024Z,46.02
2023-04-14T09:48:14.971Z,43.90
2023-04-14T09:51:13.324Z,43.27
2023-04-14T09:53:41.154Z,43.41
2023-04-14T09:56:12.282Z,43.83
2023-04-14T09:58:41.430Z,43.59
2023-04-14T10:01:21.112Z,44.08
2023-04-14T10:03:49.633Z,44.80
2023-04-14T10:06:16.322Z,43.00
2023-04-14T10:08:46.298Z,44.61
2023-04-14T10:11:32.711Z,44.69
2023-04-14T10:14:05.304Z,45.07
2023-04-14T10:16:32.806Z,44.66
2023-04-14T10:19:00.494Z,44.50
2023-04-14T10:21:27.878Z,44.08
2023-04-14T10:23:56.848Z,44.69
2023-04-14T10:26:23.679Z,43.10
2023-04-14T10:28:51.822Z,43.64
2023-04-14T10:31:37.814Z,43.13
2023-04-14T10:34:14.698Z,41.93
2023-04-14T10:36:42.604Z,43.68
2023-04-14T10:39:12.753Z,44.50
2023-04-14T10:41:48.108Z,42.34
2023-04-14T10:44:35.989Z,42.39
2023-04-14T10:47:05.175Z,42.59
2023-04-14T10:49:34.801Z,44.70
2023-04-14T10:52:09.353Z,45.26
2023-04-14T10:54:55.774Z,42.63
2023-04-14T10:57:24.180Z,43.46
2023-04-14T10:59:57.644Z,42.45
2023-04-14T11:02:28.889Z,43.29
2023-04-14T11:04:58.482Z,43.33
2023-04-14T11:07:24.924Z,41.82
2023-04-14T11:09:51.376Z,42.03
2023-04-14T11:12:26.373Z,43.24
2023-04-14T11:15:01.591Z,42.82
2023-04-14T11:17:30.371Z,42.62
2023-04-14T11:19:57.941Z,43.31
2023-04-14T11:22:47.450Z,43.08
2023-04-14T11:25:19.712Z,43.13
2023-04-14T11:27:50.360Z,42.51
2023-04-14T11:30:19.248Z,43.64
2023-04-14T11:32:51.830Z,43.04
2023-04-14T11:35:19.368Z,42.60
2023-04-14T11:37:46.852Z,42.29
2023-04-14T11:40:14.656Z,41.00
2023-04-14T11:42:47.179Z,41.65
2023-04-14T11:45:15.637Z,41.38
2023-04-14T11:48:03.709Z,40.63
2023-04-14T11:50:32.865Z,40.78
2023-04-14T11:53:00.727Z,41.19
2023-04-14T11:55:27.716Z,42.22
2023-04-14T11:57:55.522Z,42.71
2023-04-14T12:00:22.236Z,42.31
2023-04-14T12:02:48.977Z,42.08
2023-04-14T12:05:25.482Z,41.86
2023-04-14T12:07:59.626Z,42.19
2023-04-14T12:10:27.642Z,41.62
2023-04-14T12:13:05.723Z,41.61
2023-04-14T12:15:33.896Z,41.46
2023-04-14T12:18:01.338Z,40.81
2023-04-14T12:20:28.249Z,42.19
2023-04-14T12:23:04.627Z,40.08
2023-04-14T12:25:32.953Z,41.22
2023-04-14T12:28:02.531Z,39.75
2023-04-14T12:30:29.490Z,40.52
2023-04-14T12:32:56.486Z,42.07
2023-04-14T12:35:24.103Z,39.49
2023-04-14T12:37:51.627Z,39.76
2023-04-14T12:40:36.568Z,40.73
2023-04-14T12:43:06.301Z,40.77
2023-04-14T12:45:43.684Z,41.32
2023-04-14T12:48:11.217Z,41.73
2023-04-14T12:50:38.132Z,41.57
2023-04-14T12:53:23.838Z,40.64
2023-04-14T12:56:10.525Z,39.32
2023-04-14T12:58:40.048Z,39.05
2023-04-14T13:01:07.893Z,40.54
2023-04-14T13:03:38.977Z,41.06
2023-04-14T13:06:06.047Z,41.21
2023-04-14T13:08:32.452Z,40.76
2023-04-14T13:11:00.767Z,40.19
2023-04-14T13:13:27.705Z,41.03
2023-04-14T13:16:14.122Z,40.79
2023-04-14T13:18:40.509Z,40.44
2023-04-14T13:21:07.058Z,39.74
2023-04-14T13:23:33.827Z,39.36
2023-04-14T13:26:01.466Z,37.80
2023-04-14T13:28:28.579Z,38.38
2023-04-14T13:30:56.951Z,38.47
2023-04-14T13:33:25.444Z,38.34
2023-04-14T13:35:52.879Z,38.28
2023-04-14T13:38:19.304Z,38.55
2023-04-14T13:40:47.975Z,37.54
2023-04-14T13:43:16.752Z,37.63
2023-04-14T13:45:43.468Z,38.19
2023-04-14T13:48:09.917Z,37.16
2023-04-14T13:50:36.423Z,37.81
2023-04-14T13:53:03.148Z,37.40
2023-04-14T13:55:29.577Z,39.08
2023-04-14T13:57:56.250Z,37.61
2023-04-14T14:00:23.022Z,37.72
2023-04-14T14:02:49.738Z,37.60
2023-04-14T14:05:16.382Z,36.88
2023-04-14T14:07:43.379Z,38.93
2023-04-14T14:10:10.915Z,38.33
2023-04-14T14:12:37.799Z,37.67
2023-04-14T14:15:05.437Z,38.08
2023-04-14T14:17:32.165Z,36.85
2023-04-14T14:19:59.274Z,37.96
2023-04-14T14:22:26.348Z,38.18
2023-04-14T14:25:10.776Z,39.22
2023-04-14T14:27:44.834Z,37.16
2023-04-14T14:30:11.694Z,36.43
2023-04-14T14:32:38.175Z,37.11
2023-04-14T14:35:04.883Z,37.66
2023-04-14T14:37:31.368Z,36.89
2023-04-14T14:39:57.936Z,36.84
2023-04-14T14:42:24.413Z,36.51
2023-04-14T14:44:51.362Z,37.47
2023-04-14T14:47:17.884Z,38.05
2023-04-14T14:49:56.561Z,39.03
2023-04-14T14:52:33.400Z,37.92
2023-04-14T14:55:00.213Z,37.61
2023-04-14T14:57:27.120Z,36.80
2023-04-14T14:59:53.781Z,38.63
2023-04-14T15:02:21.471Z,35.95
2023-04-14T15:04:48.891Z,35.08
2023-04-14T15:07:15.372Z,35.36
2023-04-14T15:09:41.910Z,36.89
2023-04-14T15:12:08.537Z,36.61
2023-04-14T15:14:35.122Z,36.89
2023-04-14T15:17:02.520Z,36.41
2023-04-14T15:19:31.865Z,36.96
2023-04-14T15:21:58.523Z,36.23
2023-04-14T15:24:24.937Z,37.00
2023-04-14T15:26:51.375Z,35.50
2023-04-14T15:29:19.382Z,36.64
2023-04-14T15:31:45.886Z,36.34
2023-04-14T15:34:12.319Z,35.88
2023-04-14T15:36:38.768Z,37.43
2023-04-14T15:39:05.257Z,36.70
2023-04-14T15:41:31.684Z,37.48
2023-04-14T15:43:58.100Z,36.86
2023-04-14T15:46:24.818Z,36.21
2023-04-14T15:48:51.327Z,35.61
2023-04-14T15:51:18.059Z,36.46
2023-04-14T15:53:44.464Z,36.11
2023-04-14T15:56:10.908Z,36.84
2023-04-14T15:58:37.376Z,36.50
2023-04-14T16:01:07.734Z,35.59
2023-04-14T16:03:36.013Z,35.44
2023-04-14T16:06:03.641Z,34.41
2023-04-14T16:08:30.137Z,34.65
2023-04-14T16:10:56.901Z,35.37
2023-04-14T16:13:23.302Z,35.49
2023-04-14T16:15:49.793Z,34.99
2023-04-14T16:18:16.411Z,34.85
2023-04-14T16:20:42.905Z,34.64
2023-04-14T16:23:09.330Z,34.91
2023-04-14T16:25:35.756Z,34.54
2023-04-14T16:28:02.265Z,34.40
2023-04-14T16:30:28.711Z,36.09
2023-04-14T16:32:55.264Z,35.40
2023-04-14T16:35:21.824Z,35.40
2023-04-14T16:37:48.212Z,35.98
2023-04-14T16:40:15.013Z,36.08
2023-04-14T16:42:41.595Z,36.64
2023-04-14T16:45:08.830Z,37.03
2023-04-14T16:47:35.657Z,36.89
2023-04-14T16:50:02.362Z,36.59
2023-04-14T16:52:29.994Z,36.05
2023-04-14T16:54:56.374Z,36.68
2023-04-14T16:57:23.124Z,37.69
2023-04-14T16:59:49.537Z,37.61
2023-04-14T17:02:16.137Z,38.15
2023-04-14T17:04:42.862Z,37.81
2023-04-14T17:07:09.375Z,37.53
2023-04-14T17:09:35.965Z,37.98
2023-04-14T17:12:02.458Z,37.97
2023-04-14T17:14:28.865Z,38.05
2023-04-14T17:16:55.358Z,38.76
2023-04-14T17:19:22.001Z,38.96
2023-04-14T17:21:49.594Z,38.63
2023-04-14T17:24:15.995Z,39.16
2023-04-14T17:26:42.978Z,38.90
2023-04-14T17:29:09.575Z,39.18
2023-04-14T17:31:37.045Z,39.05
2023-04-14T17:34:04.268Z,39.37
2023-04-14T17:36:31.113Z,39.42
2023-04-14T17:38:57.614Z,38.63
2023-04-14T17:41:24.894Z,38.37
2023-04-14T17:43:51.381Z,37.73
2023-04-14T17:46:22.400Z,38.38
2023-04-14T17:48:49.129Z,37.72
2023-04-14T17:51:15.948Z,39.00
2023-04-14T17:53:42.976Z,39.44
2023-04-14T17:56:11.300Z,39.58
2023-04-14T17:58:37.736Z,40.85
2023-04-14T18:01:04.559Z,41.60
2023-04-14T18:03:31.049Z,42.07
2023-04-14T18:05:57.509Z,42.63
2023-04-14T18:08:23.986Z,42.49
2023-04-14T18:10:50.519Z,43.12
2023-04-14T18:13:17.886Z,43.55
2023-04-14T18:15:44.504Z,43.37
2023-04-14T18:18:11.531Z,43.53
2023-04-14T18:20:38.020Z,43.74
2023-04-14T18:23:05.156Z,44.02
2023-04-14T18:28:02.976Z,47.57
2023-04-14T18:30:30.141Z,46.07
2023-04-14T18:32:56.630Z,46.42
2023-04-14T18:35:23.749Z,47.30
2023-04-14T18:37:50.271Z,46.88
2023-04-14T18:40:16.824Z,47.21
2023-04-14T18:42:43.269Z,47.10
2023-04-14T18:45:10.200Z,47.71
2023-04-14T18:47:36.742Z,48.53
2023-04-14T18:50:04.147Z,47.81
2023-04-14T18:52:30.561Z,48.77
2023-04-14T18:54:57.314Z,49.33
2023-04-14T18:57:23.880Z,49.15
2023-04-14T18:59:50.382Z,49.42
2023-04-14T19:02:16.941Z,49.35
2023-04-14T19:04:43.598Z,51.21
2023-04-14T19:07:10.613Z,50.21
2023-04-14T19:09:37.680Z,50.19
2023-04-14T19:12:04.276Z,50.12
2023-04-14T19:14:30.788Z,50.98
2023-04-14T19:16:57.955Z,50.68
2023-04-14T19:19:25.011Z,50.78
2023-04-14T19:21:51.647Z,51.06
2023-04-14T19:24:18.644Z,50.17
2023-04-14T19:26:45.092Z,50.22
2023-04-14T19:29:11.594Z,50.12
2023-04-14T19:31:38.557Z,50.88
2023-04-14T19:34:05.001Z,51.75
2023-04-14T19:36:32.310Z,52.58
2023-04-14T19:38:58.937Z,52.87
2023-04-14T19:41:25.937Z,53.74
2023-04-14T19:43:52.377Z,54.28
2023-04-14T19:46:18.815Z,55.19
2023-04-14T19:48:45.348Z,55.36
2023-04-14T19:51:11.964Z,53.46
2023-04-14T19:53:38.591Z,53.96
2023-04-14T19:56:05.672Z,53.49
2023-04-14T19:58:32.815Z,53.49
2023-04-14T20:00:59.409Z,53.96
2023-04-14T20:03:26.573Z,53.87
2023-04-14T20:05:55.577Z,54.09
2023-04-14T20:08:26.380Z,54.44
2023-04-14T20:10:54.239Z,54.12
2023-04-14T20:13:22.764Z,54.77
2023-04-14T20:15:50.645Z,55.25
2023-04-14T20:18:20.872Z,55.73
2023-04-14T20:20:48.559Z,55.78
2023-04-14T20:23:15.572Z,57.58
2023-04-14T20:25:43.162Z,56.96
2023-04-14T20:28:09.888Z,57.26
2023-04-14T20:30:36.454Z,57.13
2023-04-14T20:33:04.525Z,58.06
2023-04-14T20:35:32.665Z,59.23
2023-04-14T20:37:59.539Z,57.76
2023-04-14T20:40:26.545Z,57.82
2023-04-14T20:42:53.243Z,58.21
2023-04-14T20:45:20.028Z,58.74
2023-04-14T20:47:46.769Z,58.59
2023-04-14T20:50:13.438Z,58.13
2023-04-14T20:52:40.459Z,58.56
2023-04-14T20:55:07.328Z,59.72
2023-04-14T20:57:33.988Z,58.90
2023-04-14T21:00:00.433Z,59.23
2023-04-14T21:02:27.410Z,61.05
2023-04-14T21:04:53.935Z,59.76
2023-04-14T21:07:20.471Z,59.72
2023-04-14T21:09:46.867Z,59.62
2023-04-14T21:12:15.991Z,59.57
2023-04-14T21:15:44.352Z,60.84
2023-04-14T21:17:29.612Z,59.96
2023-04-14T21:19:56.065Z,60.25
2023-04-14T21:22:22.557Z,59.67
2023-04-14T21:24:49.496Z,60.96
2023-04-14T21:27:17.351Z,60.08
2023-04-14T21:29:44.600Z,60.78
2023-04-14T21:32:11.533Z,60.52
2023-04-14T21:34:38.325Z,60.69
2023-04-14T21:37:04.939Z,62.14
2023-04-14T21:39:33.256Z,61.40
2023-04-14T21:42:00.350Z,61.20
2023-04-14T21:44:27.256Z,61.66
2023-04-14T21:46:54.952Z,62.00
2023-04-14T21:49:22.050Z,62.87
2023-04-14T21:51:50.280Z,61.70
2023-04-14T21:54:17.015Z,61.96
2023-04-14T21:56:43.585Z,61.58
2023-04-14T21:59:10.018Z,62.22
2023-04-14T22:01:36.646Z,63.20
2023-04-14T22:04:03.769Z,63.56
2023-04-14T22:06:30.432Z,62.46
2023-04-14T22:08:56.855Z,63.04
2023-04-14T22:11:23.338Z,62.71
2023-04-14T22:13:49.825Z,63.90
2023-04-14T22:16:16.480Z,64.35
2023-04-14T22:18:43.466Z,64.59
2023-04-14T22:21:10.588Z,64.22
2023-04-14T22:23:38.566Z,65.05
2023-04-14T22:26:05.235Z,65.02
2023-04-14T22:28:31.674Z,66.63
2023-04-14T22:30:58.198Z,66.61
2023-04-14T22:33:24.697Z,65.18
2023-04-14T22:35:51.313Z,66.18
2023-04-14T22:38:17.840Z,65.09
2023-04-14T22:40:44.228Z,65.20
2023-04-14T22:43:10.797Z,65.38
2023-04-14T22:45:38.402Z,65.30
2023-04-14T22:48:06.782Z,65.17
2023-04-14T22:50:33.840Z,65.18
2023-04-14T22:53:00.304Z,65.79
2023-04-14T22:55:27.274Z,66.34
2023-04-14T22:57:53.712Z,66.40
2023-04-14T23:00:21.594Z,66.59
2023-04-14T23:02:48.949Z,67.30
2023-04-14T23:05:15.495Z,67.47
2023-04-14T23:07:42.429Z,68.60
2023-04-14T23:10:09.403Z,69.82
2023-04-14T23:12:36.403Z,69.55
2023-04-14T23:15:04.327Z,69.87
2023-04-14T23:17:32.026Z,69.90
2023-04-14T23:19:58.474Z,69.20
2023-04-14T23:22:24.861Z,69.92
2023-04-14T23:24:51.253Z,68.86
2023-04-14T23:27:17.681Z,68.67
2023-04-14T23:29:44.107Z,68.12
2023-04-14T23:32:10.669Z,68.13
2023-04-14T23:34:37.530Z,70.07
2023-04-14T23:37:05.009Z,71.15
2023-04-14T23:39:31.532Z,73.34
2023-04-14T23:41:58.218Z,71.27
2023-04-14T23:44:24.980Z,70.56
2023-04-14T23:46:51.748Z,69.99
2023-04-14T23:49:24.293Z,70.43
2023-04-14T23:52:00.923Z,71.28
2023-04-14T23:54:27.743Z,71.06
2023-04-14T23:56:54.167Z,70.47
2023-04-14T23:59:20.527Z,71.28
